ZAREMBO AK US current weather conditions

sailwx.info

Wind from 186 at 16 knots gusting 34

Air temperature 5.0° C
Dewpoint 4.7° C

Last reported at 2020-Jan-25 21:55 UTC.
Time now 2020-Jan-25 22:38 UTC

Location: N 56°18' W 132°51'.
View on Google Maps.

See reports from other nearby stations

  
Tides and Currents Weather Stations Pressure Air Temp Water Temp Dewpoint Dewpoint Depression Visibility Wind Speed Wind Dir Waves Ship Positions
date/time (UTC)wind fromknots sea level pressurealtimeterstation pressurevisibilityair tempwater tempwave heightnotes
2020-Jan-25 21:55 186 16 gusting 34 5.0
2020-Jan-25 20:55 198 14 gusting 26 4.4
2020-Jan-25 19:55 180 14 gusting 31 4.4
2020-Jan-25 18:55 225 5 gusting 14 2.8
2020-Jan-25 17:55 183 6 gusting 15 3.9
2020-Jan-25 16:55 098 3 gusting 9 3.3
2020-Jan-25 15:55 073 6 gusting 12 2.2
2020-Jan-25 14:55 089 4 gusting 9 2.2
2020-Jan-25 13:55 107 4 gusting 9 1.7
2020-Jan-25 12:55 053 4 gusting 9 0.6
2020-Jan-25 11:55 055 5 gusting 10 -0.0
2020-Jan-25 10:55 074 6 gusting 8 -0.0
2020-Jan-25 09:55 100 3 gusting 6 -0.0
2020-Jan-25 08:55 099 2 gusting 5 -0.0
2020-Jan-25 07:55 093 2 gusting 6 -0.6
2020-Jan-25 06:55 092 1 gusting 6 -0.6
2020-Jan-25 05:55 140 0 gusting 5 -0.6
2020-Jan-25 04:55 134 0 gusting 6 -0.6
2020-Jan-25 03:55 199 4 gusting 8 -0.0
2020-Jan-25 02:55 197 6 gusting 11 -0.0
2020-Jan-25 01:55 221 3 gusting 12 -0.0
2020-Jan-25 00:55 232 6 gusting 11 0.6
2020-Jan-24 23:55 226 6 gusting 11 1.1
2020-Jan-24 22:55 223 6 gusting 10 1.1
2020-Jan-24 21:55 219 5 gusting 10 1.1
2020-Jan-24 20:55 208 6 gusting 10 0.6
2020-Jan-24 19:55 222 6 gusting 12 -0.0
2020-Jan-24 18:55 221 7 gusting 19 1.7
2020-Jan-24 17:55 236 13 gusting 30 3.9
2020-Jan-24 16:55 186 14 gusting 33 5.0
2020-Jan-24 15:55 183 13 gusting 30 5.0
2020-Jan-24 14:55 204 6 gusting 21 4.4
2020-Jan-24 13:55 159 5 gusting 19 4.4
2020-Jan-24 12:55 158 4 gusting 19 3.9
2020-Jan-24 11:55 159 8 gusting 22 4.4
2020-Jan-24 10:55 172 4 gusting 11 4.4
2020-Jan-24 09:55 046 1 gusting 5 3.3
2020-Jan-24 08:55 139 0 gusting 7 3.3
2020-Jan-24 07:55 073 5 gusting 9 2.8
2020-Jan-24 06:55 069 4 gusting 6 3.3
2020-Jan-24 05:55 198 3 gusting 13 3.9
2020-Jan-24 04:55 176 6 gusting 14 3.9
2020-Jan-24 03:55 050 1 gusting 5 3.3
2020-Jan-24 02:55 3.3
2020-Jan-24 01:55 188 6 gusting 13 3.9
2020-Jan-24 00:55 194 8 gusting 15 3.9
2020-Jan-23 23:55 209 8 gusting 19 3.9
2020-Jan-23 22:55 200 12 gusting 19 3.9